PWSweather.com
Personal Weather Stations
Station Observations
CALONGE
CalongeES 17251

CalongeES 17251

Lat: 41.85972222, Lon: 3.077777778

Elevation: 16

Station Type: Oregon WMR928N

www.calonge-meteoweb.com

High Low Average
Temperature 66.6°F19.2°C 41.4°F5.2°C 53.7°F12.1°C
Dew Point 48.0°F8.9°C 37.5°F3.1°C 43.6°F6.4°C
Winds 10.8 mph 17.4 kmh Calm Calm 3.0 mph SE4.8 kmh SE
Wind Gusts 14.4 mph23.2 kmh -- 6.0 mph9.7 kmh
Humidity 90% 47% 70%
Pressure 30.21 in1023.0 mb 29.95 in1014.2 mb -
Precipitation 0.00 in0.0 mm - -
Hour Temp Dew Point Humidity Winds Wind Gusts Pressure Precip Precip Rate Daily Precip Total
12:00 AM 50.2°F10.1°C 41.9°F5.5°C 73% Calm Calm 6.4 mph10.3 kmh 30.21 in1023.0 mb 0.00 in0.0 mm 0.00 in0.0 mm 0.00 in0.0 mm
12:15 AM 49.3°F9.6°C 41.3°F5.2°C 74% 4.7 mph WNW7.6 kmh WNW 5.3 mph8.5 kmh 30.21 in1023.0 mb 0.00 in0.0 mm 0.00 in0.0 mm 0.00 in0.0 mm
12:30 AM 48.9°F9.4°C 41.3°F5.2°C 75% Calm Calm -- 30.21 in1023.0 mb 0.00 in0.0 mm 0.00 in0.0 mm 0.00 in0.0 mm
01:00 AM 48.7°F9.3°C 40.8°F4.9°C 74% 5.3 mph WNW8.5 kmh WNW 6.4 mph10.3 kmh 30.18 in1022.0 mb 0.00 in0.0 mm 0.00 in0.0 mm 0.00 in0.0 mm
01:15 AM 48.2°F9.0°C 41.0°F5.0°C 76% 5.3 mph WNW8.5 kmh WNW 6.4 mph10.3 kmh 30.18 in1022.0 mb 0.00 in0.0 mm 0.00 in0.0 mm 0.00 in0.0 mm
01:30 AM 48.2°F9.0°C 41.0°F5.0°C 76% Calm Calm 5.3 mph8.5 kmh 30.18 in1022.0 mb 0.00 in0.0 mm 0.00 in0.0 mm 0.00 in0.0 mm
01:45 AM 47.8°F8.8°C 40.0°F4.4°C 74% 5.3 mph WNW8.5 kmh WNW 7.6 mph12.2 kmh 30.18 in1022.0 mb 0.00 in0.0 mm 0.00 in0.0 mm 0.00 in0.0 mm
02:00 AM 47.8°F8.8°C 40.0°F4.4°C 74% 4.7 mph WNW7.6 kmh WNW 7.0 mph11.3 kmh 30.18 in1022.0 mb 0.00 in0.0 mm 0.00 in0.0 mm 0.00 in0.0 mm
02:15 AM 47.8°F8.8°C 38.9°F3.8°C 71% Calm Calm 7.0 mph11.3 kmh 30.18 in1022.0 mb 0.00 in0.0 mm 0.00 in0.0 mm 0.00 in0.0 mm
02:30 AM 46.8°F8.2°C 38.2°F3.4°C 72% Calm Calm -- 30.18 in1022.0 mb 0.00 in0.0 mm 0.00 in0.0 mm 0.00 in0.0 mm
02:45 AM 45.9°F7.7°C 37.7°F3.2°C 73% Calm Calm -- 30.18 in1022.0 mb 0.00 in0.0 mm 0.00 in0.0 mm 0.00 in0.0 mm
03:00 AM 45.9°F7.7°C 37.7°F3.2°C 73% Calm Calm -- 30.18 in1022.0 mb 0.00 in0.0 mm 0.00 in0.0 mm 0.00 in0.0 mm
03:15 AM 44.2°F6.8°C 38.8°F3.8°C 81% 5.3 mph WSW8.5 kmh WSW 7.6 mph12.2 kmh 30.18 in1022.0 mb 0.00 in0.0 mm 0.00 in0.0 mm 0.00 in0.0 mm
03:30 AM 44.2°F6.8°C 38.8°F3.8°C 81% Calm Calm -- 30.18 in1022.0 mb 0.00 in0.0 mm 0.00 in0.0 mm 0.00 in0.0 mm
03:45 AM 43.3°F6.3°C 39.1°F3.9°C 85% 4.7 mph W7.6 kmh W 7.0 mph11.3 kmh 30.18 in1022.0 mb 0.00 in0.0 mm 0.00 in0.0 mm 0.00 in0.0 mm
04:00 AM 43.0°F6.1°C 39.1°F3.9°C 86% 4.1 mph W6.6 kmh W 5.9 mph9.5 kmh 30.18 in1022.0 mb 0.00 in0.0 mm 0.00 in0.0 mm 0.00 in0.0 mm
04:15 AM 43.3°F6.3°C 39.4°F4.1°C 86% 5.3 mph WNW8.5 kmh WNW 6.4 mph10.3 kmh 30.18 in1022.0 mb 0.00 in0.0 mm 0.00 in0.0 mm 0.00 in0.0 mm
04:30 AM 43.3°F6.3°C 39.4°F4.1°C 86% 4.7 mph W7.6 kmh W 6.4 mph10.3 kmh 30.15 in1021.0 mb 0.00 in0.0 mm 0.00 in0.0 mm 0.00 in0.0 mm
04:45 AM 43.2°F6.2°C 39.0°F3.9°C 85% 3.5 mph W5.6 kmh W 4.7 mph7.6 kmh 30.15 in1021.0 mb 0.00 in0.0 mm 0.00 in0.0 mm 0.00 in0.0 mm
05:00 AM 42.4°F5.8°C 38.2°F3.4°C 85% 4.7 mph W7.6 kmh W 6.4 mph10.3 kmh 30.15 in1021.0 mb 0.00 in0.0 mm 0.00 in0.0 mm 0.00 in0.0 mm
05:15 AM 42.1°F5.6°C 38.8°F3.8°C 88% 4.1 mph W6.6 kmh W 7.6 mph12.2 kmh 30.15 in1021.0 mb 0.00 in0.0 mm 0.00 in0.0 mm 0.00 in0.0 mm
05:30 AM 41.9°F5.5°C 38.6°F3.7°C 88% 6.4 mph WNW10.3 kmh WNW 6.4 mph10.3 kmh 30.15 in1021.0 mb 0.00 in0.0 mm 0.00 in0.0 mm 0.00 in0.0 mm
05:45 AM 42.8°F6.0°C 39.8°F4.3°C 89% 5.9 mph WNW9.5 kmh WNW 7.6 mph12.2 kmh 30.15 in1021.0 mb 0.00 in0.0 mm 0.00 in0.0 mm 0.00 in0.0 mm
06:00 AM 42.8°F6.0°C 39.8°F4.3°C 89% 6.4 mph W10.3 kmh W 7.6 mph12.2 kmh 30.15 in1021.0 mb 0.00 in0.0 mm 0.00 in0.0 mm 0.00 in0.0 mm
06:15 AM 42.8°F6.0°C 39.8°F4.3°C 89% 4.7 mph WNW7.6 kmh WNW 7.0 mph11.3 kmh 30.15 in1021.0 mb 0.00 in0.0 mm 0.00 in0.0 mm 0.00 in0.0 mm
06:30 AM 42.6°F5.9°C 39.6°F4.2°C 89% 4.7 mph W7.6 kmh W 7.6 mph12.2 kmh 30.15 in1021.0 mb 0.00 in0.0 mm 0.00 in0.0 mm 0.00 in0.0 mm
06:45 AM 43.0°F6.1°C 40.2°F4.6°C 90% 2.9 mph WNW4.7 kmh WNW 6.4 mph10.3 kmh 30.15 in1021.0 mb 0.00 in0.0 mm 0.00 in0.0 mm 0.00 in0.0 mm
07:00 AM 43.0°F6.1°C 40.2°F4.6°C 90% Calm Calm -- 30.15 in1021.0 mb 0.00 in0.0 mm 0.00 in0.0 mm 0.00 in0.0 mm
07:15 AM 43.0°F6.1°C 40.2°F4.6°C 90% Calm Calm 6.4 mph10.3 kmh 30.15 in1021.0 mb 0.00 in0.0 mm 0.00 in0.0 mm 0.00 in0.0 mm
07:30 AM 41.4°F5.2°C 37.5°F3.1°C 86% 4.1 mph NW6.6 kmh NW 5.9 mph9.5 kmh 30.15 in1021.0 mb 0.00 in0.0 mm 0.00 in0.0 mm 0.00 in0.0 mm
07:45 AM 41.5°F5.3°C 38.0°F3.3°C 87% 5.3 mph WNW8.5 kmh WNW 4.7 mph7.6 kmh 30.15 in1021.0 mb 0.00 in0.0 mm 0.00 in0.0 mm 0.00 in0.0 mm
08:00 AM 41.5°F5.3°C 38.0°F3.3°C 87% 4.1 mph W6.6 kmh W 6.4 mph10.3 kmh 30.15 in1021.0 mb 0.00 in0.0 mm 0.00 in0.0 mm 0.00 in0.0 mm
08:15 AM 41.5°F5.3°C 38.0°F3.3°C 87% Calm Calm 5.3 mph8.5 kmh 30.15 in1021.0 mb 0.00 in0.0 mm 0.00 in0.0 mm 0.00 in0.0 mm
08:30 AM 41.5°F5.3°C 38.0°F3.3°C 87% 5.3 mph NW8.5 kmh NW 6.4 mph10.3 kmh 30.15 in1021.0 mb 0.00 in0.0 mm 0.00 in0.0 mm 0.00 in0.0 mm
09:00 AM 45.9°F7.7°C 42.8°F6.0°C 89% Calm Calm -- 30.18 in1022.0 mb 0.00 in0.0 mm 0.00 in0.0 mm 0.00 in0.0 mm
09:15 AM 49.1°F9.5°C 44.8°F7.1°C 85% Calm Calm -- 30.18 in1022.0 mb 0.00 in0.0 mm 0.00 in0.0 mm 0.00 in0.0 mm
09:30 AM 51.3°F10.7°C 45.3°F7.4°C 80% Calm Calm -- 30.18 in1022.0 mb 0.00 in0.0 mm 0.00 in0.0 mm 0.00 in0.0 mm
09:45 AM 53.4°F11.9°C 46.4°F8.0°C 77% Calm Calm -- 30.18 in1022.0 mb 0.00 in0.0 mm 0.00 in0.0 mm 0.00 in0.0 mm
10:00 AM 55.0°F12.8°C 47.3°F8.5°C 75% Calm Calm -- 30.18 in1022.0 mb 0.00 in0.0 mm 0.00 in0.0 mm 0.00 in0.0 mm
10:15 AM 58.1°F14.5°C 47.2°F8.4°C 67% 7.0 mph SSE11.3 kmh SSE 7.6 mph12.2 kmh 30.15 in1021.0 mb 0.00 in0.0 mm 0.00 in0.0 mm 0.00 in0.0 mm
10:30 AM 60.1°F15.6°C 44.3°F6.8°C 56% 8.2 mph S13.2 kmh S 8.2 mph13.2 kmh 30.15 in1021.0 mb 0.00 in0.0 mm 0.00 in0.0 mm 0.00 in0.0 mm
10:45 AM 61.5°F16.4°C 45.7°F7.6°C 56% 7.0 mph SSE11.3 kmh SSE 10.0 mph16.1 kmh 30.15 in1021.0 mb 0.00 in0.0 mm 0.00 in0.0 mm 0.00 in0.0 mm
11:00 AM 62.2°F16.8°C 45.9°F7.7°C 55% 10.0 mph SSE16.1 kmh SSE 10.8 mph17.4 kmh 30.15 in1021.0 mb 0.00 in0.0 mm 0.00 in0.0 mm 0.00 in0.0 mm
11:15 AM 62.2°F16.8°C 47.3°F8.5°C 58% 5.3 mph SSW8.5 kmh SSW 10.0 mph16.1 kmh 30.15 in1021.0 mb 0.00 in0.0 mm 0.00 in0.0 mm 0.00 in0.0 mm
11:30 AM 63.0°F17.2°C 47.0°F8.3°C 56% 7.0 mph S11.3 kmh S 10.0 mph16.1 kmh 30.15 in1021.0 mb 0.00 in0.0 mm 0.00 in0.0 mm 0.00 in0.0 mm
11:45 AM 63.0°F17.2°C 47.0°F8.3°C 56% 5.9 mph S9.5 kmh S 13.8 mph22.2 kmh 30.15 in1021.0 mb 0.00 in0.0 mm 0.00 in0.0 mm 0.00 in0.0 mm
12:00 PM 64.2°F17.9°C 46.2°F7.9°C 52% 2.9 mph S4.7 kmh S 7.6 mph12.2 kmh 30.15 in1021.0 mb 0.00 in0.0 mm 0.00 in0.0 mm 0.00 in0.0 mm
12:15 PM 64.0°F17.8°C 46.6°F8.1°C 53% 7.0 mph SE11.3 kmh SE 10.5 mph16.9 kmh 30.15 in1021.0 mb 0.00 in0.0 mm 0.00 in0.0 mm 0.00 in0.0 mm
12:30 PM 64.0°F17.8°C 46.6°F8.1°C 53% 10.8 mph S17.4 kmh S 11.4 mph18.3 kmh 30.12 in1020.0 mb 0.00 in0.0 mm 0.00 in0.0 mm 0.00 in0.0 mm
12:45 PM 64.6°F18.1°C 46.6°F8.1°C 52% 10.0 mph S16.1 kmh S 13.2 mph21.2 kmh 30.12 in1020.0 mb 0.00 in0.0 mm 0.00 in0.0 mm 0.00 in0.0 mm
01:00 PM 64.9°F18.3°C 46.9°F8.3°C 52% 10.5 mph SSE16.9 kmh SSE 13.8 mph22.2 kmh 30.12 in1020.0 mb 0.00 in0.0 mm 0.00 in0.0 mm 0.00 in0.0 mm
01:15 PM 64.6°F18.1°C 47.1°F8.4°C 53% 7.6 mph SW12.2 kmh SW 11.4 mph18.3 kmh 30.12 in1020.0 mb 0.00 in0.0 mm 0.00 in0.0 mm 0.00 in0.0 mm
01:30 PM 63.7°F17.6°C 46.2°F7.9°C 53% 8.2 mph S13.2 kmh S 13.2 mph21.2 kmh 30.12 in1020.0 mb 0.00 in0.0 mm 0.00 in0.0 mm 0.00 in0.0 mm
01:45 PM 64.8°F18.2°C 47.2°F8.4°C 53% 5.3 mph SSW8.5 kmh SSW 13.2 mph21.2 kmh 30.09 in1019.0 mb 0.00 in0.0 mm 0.00 in0.0 mm 0.00 in0.0 mm
02:00 PM 66.6°F19.2°C 47.9°F8.8°C 51% 10.8 mph SSE17.4 kmh SSE 10.8 mph17.4 kmh 30.09 in1019.0 mb 0.00 in0.0 mm 0.00 in0.0 mm 0.00 in0.0 mm
02:15 PM 66.2°F19.0°C 46.5°F8.1°C 49% 5.9 mph S9.5 kmh S 10.8 mph17.4 kmh 30.09 in1019.0 mb 0.00 in0.0 mm 0.00 in0.0 mm 0.00 in0.0 mm
02:30 PM 65.5°F18.6°C 44.7°F7.1°C 47% 7.6 mph S12.2 kmh S 14.4 mph23.2 kmh 30.07 in1018.3 mb 0.00 in0.0 mm 0.00 in0.0 mm 0.00 in0.0 mm
02:45 PM 64.6°F18.1°C 45.0°F7.2°C 49% 8.2 mph SSW13.2 kmh SSW 10.8 mph17.4 kmh 30.07 in1018.3 mb 0.00 in0.0 mm 0.00 in0.0 mm 0.00 in0.0 mm
03:00 PM 64.2°F17.9°C 45.7°F7.6°C 51% 4.7 mph SSW7.6 kmh SSW 11.4 mph18.3 kmh 30.07 in1018.3 mb 0.00 in0.0 mm 0.00 in0.0 mm 0.00 in0.0 mm
03:15 PM 64.4°F18.0°C 46.4°F8.0°C 52% 6.4 mph S10.3 kmh S 11.4 mph18.3 kmh 30.07 in1018.3 mb 0.00 in0.0 mm 0.00 in0.0 mm 0.00 in0.0 mm
03:30 PM 64.9°F18.3°C 46.4°F8.0°C 51% 4.7 mph SSW7.6 kmh SSW 10.0 mph16.1 kmh 30.07 in1018.3 mb 0.00 in0.0 mm 0.00 in0.0 mm 0.00 in0.0 mm
03:45 PM 65.7°F18.7°C 46.5°F8.1°C 50% 4.7 mph S7.6 kmh S 10.8 mph17.4 kmh 30.04 in1017.3 mb 0.00 in0.0 mm 0.00 in0.0 mm 0.00 in0.0 mm
04:00 PM 65.3°F18.5°C 47.2°F8.4°C 52% 7.6 mph SSE12.2 kmh SSE 10.8 mph17.4 kmh 30.04 in1017.3 mb 0.00 in0.0 mm 0.00 in0.0 mm 0.00 in0.0 mm
04:15 PM 63.9°F17.7°C 47.4°F8.6°C 55% 5.3 mph ESE8.5 kmh ESE 7.0 mph11.3 kmh 30.04 in1017.3 mb 0.00 in0.0 mm 0.00 in0.0 mm 0.00 in0.0 mm
04:30 PM 63.9°F17.7°C 47.4°F8.6°C 55% 4.7 mph SSE7.6 kmh SSE 7.0 mph11.3 kmh 30.04 in1017.3 mb 0.00 in0.0 mm 0.00 in0.0 mm 0.00 in0.0 mm
04:45 PM 61.9°F16.6°C 47.8°F8.8°C 60% 4.7 mph SE7.6 kmh SE 6.4 mph10.3 kmh 30.04 in1017.3 mb 0.00 in0.0 mm 0.00 in0.0 mm 0.00 in0.0 mm
05:00 PM 62.1°F16.7°C 48.0°F8.9°C 60% Calm Calm 8.2 mph13.2 kmh 30.01 in1016.3 mb 0.00 in0.0 mm 0.00 in0.0 mm 0.00 in0.0 mm
05:15 PM 62.1°F16.7°C 47.6°F8.7°C 59% 4.7 mph SE7.6 kmh SE 6.4 mph10.3 kmh 30.01 in1016.3 mb 0.00 in0.0 mm 0.00 in0.0 mm 0.00 in0.0 mm
05:30 PM 62.4°F16.9°C 46.0°F7.8°C 55% Calm Calm 7.6 mph12.2 kmh 30.01 in1016.3 mb 0.00 in0.0 mm 0.00 in0.0 mm 0.00 in0.0 mm
05:45 PM 62.4°F16.9°C 46.0°F7.8°C 55% Calm Calm -- 30.01 in1016.3 mb 0.00 in0.0 mm 0.00 in0.0 mm 0.00 in0.0 mm
06:00 PM 61.9°F16.6°C 46.9°F8.3°C 58% Calm Calm -- 29.98 in1015.2 mb 0.00 in0.0 mm 0.00 in0.0 mm 0.00 in0.0 mm
06:15 PM 61.3°F16.3°C 46.4°F8.0°C 58% Calm Calm -- 29.98 in1015.2 mb 0.00 in0.0 mm 0.00 in0.0 mm 0.00 in0.0 mm
06:30 PM 59.7°F15.4°C 47.5°F8.6°C 64% Calm Calm -- 29.98 in1015.2 mb 0.00 in0.0 mm 0.00 in0.0 mm 0.00 in0.0 mm
06:45 PM 58.6°F14.8°C 47.3°F8.5°C 66% Calm Calm -- 29.98 in1015.2 mb 0.00 in0.0 mm 0.00 in0.0 mm 0.00 in0.0 mm
07:00 PM 57.2°F14.0°C 47.5°F8.6°C 70% Calm Calm -- 29.98 in1015.2 mb 0.00 in0.0 mm 0.00 in0.0 mm 0.00 in0.0 mm
07:15 PM 55.9°F13.3°C 46.3°F7.9°C 70% Calm Calm -- 29.98 in1015.2 mb 0.00 in0.0 mm 0.00 in0.0 mm 0.00 in0.0 mm
07:30 PM 55.0°F12.8°C 46.9°F8.3°C 74% Calm Calm -- 29.98 in1015.2 mb 0.00 in0.0 mm 0.00 in0.0 mm 0.00 in0.0 mm
07:45 PM 53.4°F11.9°C 46.0°F7.8°C 76% Calm Calm -- 29.98 in1015.2 mb 0.00 in0.0 mm 0.00 in0.0 mm 0.00 in0.0 mm
08:00 PM 53.2°F11.8°C 46.9°F8.3°C 79% Calm Calm -- 29.98 in1015.2 mb 0.00 in0.0 mm 0.00 in0.0 mm 0.00 in0.0 mm
08:15 PM 52.7°F11.5°C 45.0°F7.2°C 75% Calm Calm -- 29.98 in1015.2 mb 0.00 in0.0 mm 0.00 in0.0 mm 0.00 in0.0 mm
08:30 PM 51.8°F11.0°C 44.5°F6.9°C 76% Calm Calm -- 29.98 in1015.2 mb 0.00 in0.0 mm 0.00 in0.0 mm 0.00 in0.0 mm
08:45 PM 51.8°F11.0°C 45.5°F7.5°C 79% Calm Calm 7.0 mph11.3 kmh 29.98 in1015.2 mb 0.00 in0.0 mm 0.00 in0.0 mm 0.00 in0.0 mm
09:00 PM 51.6°F10.9°C 45.3°F7.4°C 79% Calm Calm -- 29.95 in1014.2 mb 0.00 in0.0 mm 0.00 in0.0 mm 0.00 in0.0 mm
09:15 PM 51.6°F10.9°C 45.3°F7.4°C 79% Calm Calm -- 29.98 in1015.2 mb 0.00 in0.0 mm 0.00 in0.0 mm 0.00 in0.0 mm
09:30 PM 51.6°F10.9°C 45.3°F7.4°C 79% Calm Calm -- 29.98 in1015.2 mb 0.00 in0.0 mm 0.00 in0.0 mm 0.00 in0.0 mm
09:45 PM 52.0°F11.1°C 44.6°F7.0°C 76% Calm Calm -- 29.98 in1015.2 mb 0.00 in0.0 mm 0.00 in0.0 mm 0.00 in0.0 mm
10:00 PM 52.2°F11.2°C 44.8°F7.1°C 76% Calm Calm 5.3 mph8.5 kmh 29.95 in1014.2 mb 0.00 in0.0 mm 0.00 in0.0 mm 0.00 in0.0 mm
10:15 PM 51.6°F10.9°C 44.3°F6.8°C 76% Calm Calm -- 29.95 in1014.2 mb 0.00 in0.0 mm 0.00 in0.0 mm 0.00 in0.0 mm
10:30 PM 51.6°F10.9°C 44.3°F6.8°C 76% 5.9 mph ESE9.5 kmh ESE 7.6 mph12.2 kmh 29.95 in1014.2 mb 0.00 in0.0 mm 0.00 in0.0 mm 0.00 in0.0 mm
10:45 PM 54.7°F12.6°C 45.8°F7.7°C 72% 2.9 mph NE4.7 kmh NE 10.5 mph16.9 kmh 29.95 in1014.2 mb 0.00 in0.0 mm 0.00 in0.0 mm 0.00 in0.0 mm
11:00 PM 55.6°F13.1°C 45.2°F7.3°C 68% Calm Calm 5.3 mph8.5 kmh 29.95 in1014.2 mb 0.00 in0.0 mm 0.00 in0.0 mm 0.00 in0.0 mm
11:15 PM 55.4°F13.0°C 44.2°F6.8°C 66% Calm Calm 5.3 mph8.5 kmh 29.95 in1014.2 mb 0.00 in0.0 mm 0.00 in0.0 mm 0.00 in0.0 mm
11:30 PM 55.0°F12.8°C 43.9°F6.6°C 66% Calm Calm 8.2 mph13.2 kmh 29.95 in1014.2 mb 0.00 in0.0 mm 0.00 in0.0 mm 0.00 in0.0 mm
11:45 PM 55.0°F12.8°C 43.9°F6.6°C 66% Calm Calm -- 29.95 in1014.2 mb 0.00 in0.0 mm 0.00 in0.0 mm 0.00 in0.0 mm